createdAt,value
2019-05-20T00:06:52.734Z,16.62
2019-05-20T00:15:13.874Z,16.52
2019-05-20T00:23:35.367Z,16.51
2019-05-20T00:31:56.873Z,16.52
2019-05-20T00:40:18.283Z,16.42
2019-05-20T00:48:39.769Z,16.29
2019-05-20T00:57:01.040Z,16.23
2019-05-20T01:05:22.336Z,16.12
2019-05-20T01:13:43.639Z,16.19
2019-05-20T01:22:05.830Z,16.11
2019-05-20T01:30:26.940Z,15.91
2019-05-20T01:38:48.408Z,15.84
2019-05-20T01:47:09.922Z,15.88
2019-05-20T01:55:31.377Z,15.86
2019-05-20T02:03:52.834Z,15.95
2019-05-20T02:12:14.104Z,15.91
2019-05-20T02:20:35.397Z,15.87
2019-05-20T02:28:56.532Z,15.82
2019-05-20T02:37:18.732Z,15.68
2019-05-20T02:45:40.149Z,15.62
2019-05-20T02:54:01.222Z,15.63
2019-05-20T03:02:22.355Z,15.73
2019-05-20T03:10:43.514Z,15.76
2019-05-20T03:19:05.059Z,15.93
2019-05-20T03:27:26.583Z,16.07
2019-05-20T03:35:48.591Z,16.00
2019-05-20T03:44:09.749Z,16.09
2019-05-20T03:52:31.220Z,16.16
2019-05-20T04:00:52.735Z,16.05
2019-05-20T04:09:13.880Z,15.97
2019-05-20T04:17:35.022Z,16.06
2019-05-20T04:25:56.157Z,16.12
2019-05-20T04:34:17.289Z,16.18
2019-05-20T04:42:38.450Z,16.34
2019-05-20T04:50:59.574Z,16.58
2019-05-20T04:59:20.708Z,16.80
2019-05-20T05:07:41.840Z,16.97
2019-05-20T05:16:02.954Z,17.06
2019-05-20T05:24:25.157Z,17.11
2019-05-20T05:32:46.310Z,17.24
2019-05-20T05:41:07.423Z,17.38
2019-05-20T05:49:28.564Z,17.51
2019-05-20T05:57:49.681Z,17.55
2019-05-20T06:06:13.151Z,17.15
2019-05-20T06:14:33.597Z,17.22
2019-05-20T06:22:54.744Z,17.25
2019-05-20T06:31:16.204Z,17.47
2019-05-20T06:39:37.340Z,17.56
2019-05-20T06:47:58.810Z,17.53
2019-05-20T06:56:19.969Z,17.65
2019-05-20T07:04:41.437Z,17.77
2019-05-20T07:13:02.561Z,17.92
2019-05-20T07:21:23.703Z,17.97
2019-05-20T07:29:44.823Z,18.12
2019-05-20T07:38:06.342Z,18.45
2019-05-20T07:46:27.507Z,18.56
2019-05-20T07:54:48.647Z,18.64
2019-05-20T08:03:09.742Z,18.56
2019-05-20T08:11:30.991Z,18.57
2019-05-20T08:19:52.250Z,18.73
2019-05-20T08:28:13.528Z,18.81
2019-05-20T08:36:34.642Z,18.73
2019-05-20T08:44:55.821Z,18.64
2019-05-20T08:53:16.911Z,18.55
2019-05-20T09:01:38.037Z,18.65
2019-05-20T09:09:59.209Z,18.63
2019-05-20T09:18:20.344Z,18.63
2019-05-20T09:26:41.479Z,18.82
2019-05-20T09:35:02.697Z,18.70
2019-05-20T09:43:23.844Z,18.91
2019-05-20T09:51:45.394Z,18.99
2019-05-20T10:00:06.505Z,19.37
2019-05-20T10:08:39.039Z,19.49
2019-05-20T10:16:50.425Z,19.50
2019-05-20T10:25:11.530Z,19.60
2019-05-20T10:33:36.698Z,19.86
2019-05-20T10:41:56.047Z,20.18
2019-05-20T10:50:17.521Z,20.33
2019-05-20T10:58:38.647Z,20.54
2019-05-20T11:06:59.914Z,20.53
2019-05-20T11:15:21.160Z,20.59
2019-05-20T11:23:42.290Z,20.57
2019-05-20T11:32:03.422Z,20.65
2019-05-20T11:40:24.544Z,20.75
2019-05-20T11:48:46.637Z,20.90
2019-05-20T11:57:07.785Z,20.71
2019-05-20T12:05:29.292Z,20.58
2019-05-20T12:13:50.786Z,20.50
2019-05-20T12:22:12.171Z,20.63
2019-05-20T12:30:33.447Z,20.98
2019-05-20T12:38:54.628Z,21.14
2019-05-20T12:47:15.975Z,21.25
2019-05-20T12:55:37.530Z,21.43
2019-05-20T13:03:58.931Z,21.24
2019-05-20T13:12:20.199Z,21.41
2019-05-20T13:20:41.487Z,21.53
2019-05-20T13:29:02.993Z,21.63
2019-05-20T13:37:24.500Z,21.65
2019-05-20T13:45:47.998Z,21.65
2019-05-20T13:54:08.716Z,21.53
2019-05-20T14:02:30.155Z,21.62
2019-05-20T14:11:03.513Z,21.84
2019-05-20T14:19:14.674Z,21.73
2019-05-20T14:27:35.812Z,21.70
2019-05-20T14:35:56.933Z,21.59
2019-05-20T14:52:44.711Z,21.62
2019-05-20T15:01:06.215Z,21.60
2019-05-20T15:09:27.612Z,21.65
2019-05-20T15:17:48.753Z,21.62
2019-05-20T15:26:09.883Z,21.44
2019-05-20T15:34:31.045Z,21.02
2019-05-20T15:42:52.566Z,20.65
2019-05-20T15:51:13.670Z,20.67
2019-05-20T15:59:45.476Z,20.49
2019-05-20T16:07:57.896Z,20.41
2019-05-20T16:16:19.011Z,20.22
2019-05-20T16:24:40.159Z,19.98
2019-05-20T16:33:01.420Z,19.88
2019-05-20T16:41:22.564Z,19.93
2019-05-20T16:49:43.721Z,20.03
2019-05-20T16:58:04.852Z,20.02
2019-05-20T17:06:27.639Z,20.10
2019-05-20T17:14:48.893Z,20.02
2019-05-20T17:23:10.169Z,19.98
2019-05-20T17:31:31.298Z,19.93
2019-05-20T17:39:52.556Z,20.13
2019-05-20T17:48:13.722Z,20.20
2019-05-20T17:56:34.826Z,20.17
2019-05-20T18:04:56.118Z,20.17
2019-05-20T18:13:17.597Z,20.09
2019-05-20T18:21:38.723Z,20.02
2019-05-20T18:29:59.913Z,19.76
2019-05-20T18:38:21.099Z,19.86
2019-05-20T18:46:42.252Z,19.80
2019-05-20T18:55:03.440Z,19.79
2019-05-20T19:03:24.951Z,19.65
2019-05-20T19:11:46.740Z,19.77
2019-05-20T19:20:07.881Z,19.53
2019-05-20T19:28:29.340Z,19.38
2019-05-20T19:36:50.455Z,19.33
2019-05-20T19:45:11.736Z,19.32
2019-05-20T19:53:32.850Z,19.16
2019-05-20T20:01:53.981Z,19.02
2019-05-20T20:10:15.231Z,19.08
2019-05-20T20:18:36.339Z,19.08
2019-05-20T20:26:57.611Z,18.86
2019-05-20T20:35:18.753Z,19.03
2019-05-20T20:43:39.941Z,18.75
2019-05-20T20:52:01.606Z,18.93
2019-05-20T21:00:22.952Z,18.97
2019-05-20T21:08:44.437Z,19.01
2019-05-20T21:17:05.948Z,18.70
2019-05-20T21:25:27.163Z,18.74
2019-05-20T21:33:48.280Z,18.53
2019-05-20T21:42:09.574Z,18.54
2019-05-20T21:50:30.720Z,18.56
2019-05-20T21:58:52.823Z,18.01
2019-05-20T22:07:13.984Z,18.34
2019-05-20T22:15:35.092Z,18.26
2019-05-20T22:23:56.197Z,18.33
2019-05-20T22:32:17.338Z,18.20
2019-05-20T22:40:38.566Z,18.19
2019-05-20T22:48:59.838Z,17.94
2019-05-20T22:57:20.957Z,18.20
2019-05-20T23:05:42.141Z,18.21
2019-05-20T23:14:03.316Z,18.06
2019-05-20T23:22:24.422Z,17.98
2019-05-20T23:30:45.549Z,17.62
2019-05-20T23:39:06.666Z,17.46
2019-05-20T23:47:27.922Z,17.08
2019-05-20T23:55:49.175Z,17.11
